sensor_id;sensor_type;location;lat;lon;timestamp;P1;durP1;ratioP1;P2;durP2;ratioP2
56667;SDS011;42542;48.360;10.958;2022-08-21T00:01:26;11.75;;;3.50;;
56667;SDS011;42542;48.360;10.958;2022-08-21T00:04:33;8.95;;;3.75;;
56667;SDS011;42542;48.360;10.958;2022-08-21T00:07:34;7.72;;;3.20;;
56667;SDS011;42542;48.360;10.958;2022-08-21T00:10:36;6.73;;;3.37;;
56667;SDS011;42542;48.360;10.958;2022-08-21T00:13:41;7.47;;;3.17;;
56667;SDS011;42542;48.360;10.958;2022-08-21T00:16:43;7.70;;;3.10;;
56667;SDS011;42542;48.360;10.958;2022-08-21T00:19:45;8.45;;;3.20;;
56667;SDS011;42542;48.360;10.958;2022-08-21T00:22:50;7.20;;;3.30;;
56667;SDS011;42542;48.360;10.958;2022-08-21T00:25:57;7.43;;;3.60;;
56667;SDS011;42542;48.360;10.958;2022-08-21T00:28:59;7.25;;;3.28;;
56667;SDS011;42542;48.360;10.958;2022-08-21T00:32:02;8.63;;;3.38;;
56667;SDS011;42542;48.360;10.958;2022-08-21T00:35:06;6.93;;;3.22;;
56667;SDS011;42542;48.360;10.958;2022-08-21T00:38:12;8.90;;;3.28;;
56667;SDS011;42542;48.360;10.958;2022-08-21T00:41:14;10.37;;;3.70;;
56667;SDS011;42542;48.360;10.958;2022-08-21T00:44:39;8.85;;;3.33;;
56667;SDS011;42542;48.360;10.958;2022-08-21T00:47:41;7.72;;;3.60;;
56667;SDS011;42542;48.360;10.958;2022-08-21T00:50:48;7.30;;;3.40;;
56667;SDS011;42542;48.360;10.958;2022-08-21T00:54:15;8.48;;;3.78;;
56667;SDS011;42542;48.360;10.958;2022-08-21T00:57:21;10.60;;;3.93;;
56667;SDS011;42542;48.360;10.958;2022-08-21T01:00:36;10.52;;;4.30;;
56667;SDS011;42542;48.360;10.958;2022-08-21T01:03:40;10.18;;;4.20;;
56667;SDS011;42542;48.360;10.958;2022-08-21T01:06:45;10.55;;;4.00;;
56667;SDS011;42542;48.360;10.958;2022-08-21T01:09:48;10.13;;;3.80;;
56667;SDS011;42542;48.360;10.958;2022-08-21T01:12:51;8.10;;;3.67;;
56667;SDS011;42542;48.360;10.958;2022-08-21T01:15:55;7.55;;;3.50;;
56667;SDS011;42542;48.360;10.958;2022-08-21T01:19:06;8.32;;;3.33;;
56667;SDS011;42542;48.360;10.958;2022-08-21T01:22:09;7.15;;;3.20;;
56667;SDS011;42542;48.360;10.958;2022-08-21T01:25:14;9.52;;;3.50;;
56667;SDS011;42542;48.360;10.958;2022-08-21T01:28:17;7.33;;;3.33;;
56667;SDS011;42542;48.360;10.958;2022-08-21T01:31:21;8.27;;;3.25;;
56667;SDS011;42542;48.360;10.958;2022-08-21T01:34:27;7.97;;;3.25;;
56667;SDS011;42542;48.360;10.958;2022-08-21T01:37:38;6.55;;;2.88;;
56667;SDS011;42542;48.360;10.958;2022-08-21T01:40:41;11.18;;;3.50;;
56667;SDS011;42542;48.360;10.958;2022-08-21T01:43:45;7.43;;;3.10;;
56667;SDS011;42542;48.360;10.958;2022-08-21T01:46:52;7.18;;;3.20;;
56667;SDS011;42542;48.360;10.958;2022-08-21T01:49:59;8.75;;;3.05;;
56667;SDS011;42542;48.360;10.958;2022-08-21T01:53:06;8.05;;;3.17;;
56667;SDS011;42542;48.360;10.958;2022-08-21T01:56:12;8.18;;;3.17;;
56667;SDS011;42542;48.360;10.958;2022-08-21T01:59:20;8.37;;;3.07;;
56667;SDS011;42542;48.360;10.958;2022-08-21T02:02:23;6.38;;;2.72;;
56667;SDS011;42542;48.360;10.958;2022-08-21T02:05:25;7.13;;;2.88;;
56667;SDS011;42542;48.360;10.958;2022-08-21T02:08:27;6.78;;;3.00;;
56667;SDS011;42542;48.360;10.958;2022-08-21T02:11:32;6.47;;;3.00;;
56667;SDS011;42542;48.360;10.958;2022-08-21T02:14:35;7.33;;;2.90;;
56667;SDS011;42542;48.360;10.958;2022-08-21T02:17:45;6.53;;;2.85;;
56667;SDS011;42542;48.360;10.958;2022-08-21T02:20:52;6.75;;;3.00;;
56667;SDS011;42542;48.360;10.958;2022-08-21T02:23:56;6.45;;;3.00;;
56667;SDS011;42542;48.360;10.958;2022-08-21T02:27:09;8.52;;;3.22;;
56667;SDS011;42542;48.360;10.958;2022-08-21T02:30:14;7.50;;;3.10;;
56667;SDS011;42542;48.360;10.958;2022-08-21T02:33:23;9.65;;;3.42;;
56667;SDS011;42542;48.360;10.958;2022-08-21T02:36:26;7.07;;;3.08;;
56667;SDS011;42542;48.360;10.958;2022-08-21T02:39:31;7.22;;;3.05;;
56667;SDS011;42542;48.360;10.958;2022-08-21T02:42:40;7.18;;;3.20;;
56667;SDS011;42542;48.360;10.958;2022-08-21T02:45:42;7.07;;;3.07;;
56667;SDS011;42542;48.360;10.958;2022-08-21T02:48:50;9.63;;;3.25;;
56667;SDS011;42542;48.360;10.958;2022-08-21T02:51:52;7.00;;;3.10;;
56667;SDS011;42542;48.360;10.958;2022-08-21T02:54:57;6.95;;;3.00;;
56667;SDS011;42542;48.360;10.958;2022-08-21T02:58:02;7.05;;;3.15;;
56667;SDS011;42542;48.360;10.958;2022-08-21T03:01:07;8.80;;;3.17;;
56667;SDS011;42542;48.360;10.958;2022-08-21T03:04:13;7.43;;;3.22;;
56667;SDS011;42542;48.360;10.958;2022-08-21T03:07:18;7.10;;;3.28;;
56667;SDS011;42542;48.360;10.958;2022-08-21T03:10:21;7.28;;;3.35;;
56667;SDS011;42542;48.360;10.958;2022-08-21T03:13:23;6.90;;;3.20;;
56667;SDS011;42542;48.360;10.958;2022-08-21T03:16:28;6.70;;;3.10;;
56667;SDS011;42542;48.360;10.958;2022-08-21T03:19:35;7.15;;;3.22;;
56667;SDS011;42542;48.360;10.958;2022-08-21T03:22:37;7.22;;;3.35;;
56667;SDS011;42542;48.360;10.958;2022-08-21T03:25:39;8.93;;;3.58;;
56667;SDS011;42542;48.360;10.958;2022-08-21T03:28:42;9.55;;;3.55;;
56667;SDS011;42542;48.360;10.958;2022-08-21T03:31:44;7.53;;;3.47;;
56667;SDS011;42542;48.360;10.958;2022-08-21T03:34:53;7.63;;;3.42;;
56667;SDS011;42542;48.360;10.958;2022-08-21T03:38:00;8.25;;;3.70;;
56667;SDS011;42542;48.360;10.958;2022-08-21T03:41:03;7.65;;;3.38;;
56667;SDS011;42542;48.360;10.958;2022-08-21T03:44:08;8.25;;;3.50;;
56667;SDS011;42542;48.360;10.958;2022-08-21T03:47:13;9.40;;;3.43;;
56667;SDS011;42542;48.360;10.958;2022-08-21T03:50:16;8.73;;;3.80;;
56667;SDS011;42542;48.360;10.958;2022-08-21T03:53:20;8.32;;;3.50;;
56667;SDS011;42542;48.360;10.958;2022-08-21T03:56:31;8.73;;;3.55;;
56667;SDS011;42542;48.360;10.958;2022-08-21T03:59:37;10.40;;;3.70;;
56667;SDS011;42542;48.360;10.958;2022-08-21T04:02:44;8.70;;;3.40;;
56667;SDS011;42542;48.360;10.958;2022-08-21T04:05:49;7.50;;;3.50;;
56667;SDS011;42542;48.360;10.958;2022-08-21T04:08:51;7.35;;;3.38;;
56667;SDS011;42542;48.360;10.958;2022-08-21T04:11:54;7.80;;;3.50;;
56667;SDS011;42542;48.360;10.958;2022-08-21T04:15:00;7.88;;;3.40;;
56667;SDS011;42542;48.360;10.958;2022-08-21T04:18:05;9.13;;;3.40;;
56667;SDS011;42542;48.360;10.958;2022-08-21T04:21:07;8.00;;;3.40;;
56667;SDS011;42542;48.360;10.958;2022-08-21T04:24:15;6.93;;;3.17;;
56667;SDS011;42542;48.360;10.958;2022-08-21T04:27:20;9.23;;;3.80;;
56667;SDS011;42542;48.360;10.958;2022-08-21T04:30:22;10.40;;;3.70;;
56667;SDS011;42542;48.360;10.958;2022-08-21T04:33:29;7.57;;;3.37;;
56667;SDS011;42542;48.360;10.958;2022-08-21T04:36:34;9.25;;;3.83;;
56667;SDS011;42542;48.360;10.958;2022-08-21T04:39:38;8.02;;;3.22;;
56667;SDS011;42542;48.360;10.958;2022-08-21T04:42:42;7.38;;;3.47;;
56667;SDS011;42542;48.360;10.958;2022-08-21T04:45:50;7.63;;;3.47;;
56667;SDS011;42542;48.360;10.958;2022-08-21T04:48:52;8.03;;;3.23;;
56667;SDS011;42542;48.360;10.958;2022-08-21T04:51:58;7.32;;;3.50;;
56667;SDS011;42542;48.360;10.958;2022-08-21T04:55:01;8.40;;;3.70;;
56667;SDS011;42542;48.360;10.958;2022-08-21T04:58:09;8.65;;;3.60;;
56667;SDS011;42542;48.360;10.958;2022-08-21T05:01:15;9.80;;;3.80;;
56667;SDS011;42542;48.360;10.958;2022-08-21T05:04:22;8.33;;;3.63;;
56667;SDS011;42542;48.360;10.958;2022-08-21T05:07:30;8.32;;;3.65;;
56667;SDS011;42542;48.360;10.958;2022-08-21T05:10:46;8.38;;;3.47;;
56667;SDS011;42542;48.360;10.958;2022-08-21T05:13:58;8.20;;;3.70;;
56667;SDS011;42542;48.360;10.958;2022-08-21T05:17:03;7.63;;;3.80;;
56667;SDS011;42542;48.360;10.958;2022-08-21T05:20:06;9.40;;;3.97;;
56667;SDS011;42542;48.360;10.958;2022-08-21T05:23:10;10.10;;;3.90;;
56667;SDS011;42542;48.360;10.958;2022-08-21T05:26:13;9.18;;;4.20;;
56667;SDS011;42542;48.360;10.958;2022-08-21T05:29:18;11.18;;;4.45;;
56667;SDS011;42542;48.360;10.958;2022-08-21T05:32:21;9.35;;;4.35;;
56667;SDS011;42542;48.360;10.958;2022-08-21T05:35:26;11.93;;;5.00;;
56667;SDS011;42542;48.360;10.958;2022-08-21T05:38:29;10.40;;;4.45;;
56667;SDS011;42542;48.360;10.958;2022-08-21T05:41:31;9.90;;;4.40;;
56667;SDS011;42542;48.360;10.958;2022-08-21T05:44:34;9.43;;;4.32;;
56667;SDS011;42542;48.360;10.958;2022-08-21T05:47:37;10.80;;;4.15;;
56667;SDS011;42542;48.360;10.958;2022-08-21T05:50:41;9.57;;;4.37;;
56667;SDS011;42542;48.360;10.958;2022-08-21T05:53:49;9.05;;;4.00;;
56667;SDS011;42542;48.360;10.958;2022-08-21T05:56:54;9.80;;;4.38;;
56667;SDS011;42542;48.360;10.958;2022-08-21T05:59:56;8.43;;;4.00;;
56667;SDS011;42542;48.360;10.958;2022-08-21T06:03:03;9.93;;;4.03;;
56667;SDS011;42542;48.360;10.958;2022-08-21T06:06:24;10.30;;;4.23;;
56667;SDS011;42542;48.360;10.958;2022-08-21T06:09:26;11.10;;;4.10;;
56667;SDS011;42542;48.360;10.958;2022-08-21T06:12:29;9.02;;;4.07;;
56667;SDS011;42542;48.360;10.958;2022-08-21T06:15:34;10.77;;;3.90;;
56667;SDS011;42542;48.360;10.958;2022-08-21T06:18:39;10.77;;;4.15;;
56667;SDS011;42542;48.360;10.958;2022-08-21T06:21:52;8.43;;;3.80;;
56667;SDS011;42542;48.360;10.958;2022-08-21T06:24:57;8.57;;;3.90;;
56667;SDS011;42542;48.360;10.958;2022-08-21T06:28:09;8.95;;;4.05;;
56667;SDS011;42542;48.360;10.958;2022-08-21T06:34:13;8.65;;;3.78;;
56667;SDS011;42542;48.360;10.958;2022-08-21T06:37:16;7.80;;;3.60;;
56667;SDS011;42542;48.360;10.958;2022-08-21T06:40:17;7.45;;;3.40;;
56667;SDS011;42542;48.360;10.958;2022-08-21T06:43:19;7.93;;;3.58;;
56667;SDS011;42542;48.360;10.958;2022-08-21T06:46:31;7.85;;;3.60;;
56667;SDS011;42542;48.360;10.958;2022-08-21T06:49:34;7.70;;;3.28;;
56667;SDS011;42542;48.360;10.958;2022-08-21T06:52:44;7.30;;;3.47;;
56667;SDS011;42542;48.360;10.958;2022-08-21T06:55:58;7.20;;;3.60;;
56667;SDS011;42542;48.360;10.958;2022-08-21T06:59:05;7.80;;;3.60;;
56667;SDS011;42542;48.360;10.958;2022-08-21T07:02:09;9.07;;;3.53;;
56667;SDS011;42542;48.360;10.958;2022-08-21T07:05:12;7.47;;;3.45;;
56667;SDS011;42542;48.360;10.958;2022-08-21T07:08:19;9.97;;;3.93;;
56667;SDS011;42542;48.360;10.958;2022-08-21T07:11:27;10.55;;;3.63;;
56667;SDS011;42542;48.360;10.958;2022-08-21T07:14:34;10.15;;;3.70;;
56667;SDS011;42542;48.360;10.958;2022-08-21T07:17:46;8.95;;;4.10;;
56667;SDS011;42542;48.360;10.958;2022-08-21T07:20:48;10.13;;;3.88;;
56667;SDS011;42542;48.360;10.958;2022-08-21T07:23:59;9.50;;;3.70;;
56667;SDS011;42542;48.360;10.958;2022-08-21T07:27:03;7.28;;;3.70;;
56667;SDS011;42542;48.360;10.958;2022-08-21T07:30:10;9.88;;;4.03;;
56667;SDS011;42542;48.360;10.958;2022-08-21T07:33:12;12.23;;;3.90;;
56667;SDS011;42542;48.360;10.958;2022-08-21T07:36:15;10.05;;;3.90;;
56667;SDS011;42542;48.360;10.958;2022-08-21T07:39:17;10.67;;;4.20;;
56667;SDS011;42542;48.360;10.958;2022-08-21T07:42:19;8.40;;;4.00;;
56667;SDS011;42542;48.360;10.958;2022-08-21T07:45:21;8.55;;;4.18;;
56667;SDS011;42542;48.360;10.958;2022-08-21T07:48:27;7.22;;;3.55;;
56667;SDS011;42542;48.360;10.958;2022-08-21T07:51:29;9.52;;;4.10;;
56667;SDS011;42542;48.360;10.958;2022-08-21T07:54:31;8.57;;;4.40;;
56667;SDS011;42542;48.360;10.958;2022-08-21T07:57:34;11.10;;;4.03;;
56667;SDS011;42542;48.360;10.958;2022-08-21T08:00:36;9.60;;;4.65;;
56667;SDS011;42542;48.360;10.958;2022-08-21T08:03:38;8.88;;;4.50;;
56667;SDS011;42542;48.360;10.958;2022-08-21T08:06:43;11.07;;;5.22;;
56667;SDS011;42542;48.360;10.958;2022-08-21T08:09:50;11.80;;;4.90;;
56667;SDS011;42542;48.360;10.958;2022-08-21T08:12:53;8.95;;;4.50;;
56667;SDS011;42542;48.360;10.958;2022-08-21T08:15:59;8.32;;;4.03;;
56667;SDS011;42542;48.360;10.958;2022-08-21T08:19:08;9.63;;;4.70;;
56667;SDS011;42542;48.360;10.958;2022-08-21T08:22:21;10.07;;;5.30;;
56667;SDS011;42542;48.360;10.958;2022-08-21T08:25:26;8.77;;;4.77;;
56667;SDS011;42542;48.360;10.958;2022-08-21T08:28:37;10.65;;;5.28;;
56667;SDS011;42542;48.360;10.958;2022-08-21T08:31:42;9.23;;;5.05;;
56667;SDS011;42542;48.360;10.958;2022-08-21T08:34:44;10.52;;;5.05;;
56667;SDS011;42542;48.360;10.958;2022-08-21T08:37:49;9.02;;;4.80;;
56667;SDS011;42542;48.360;10.958;2022-08-21T08:43:59;9.50;;;5.03;;
56667;SDS011;42542;48.360;10.958;2022-08-21T08:47:04;9.05;;;4.95;;
56667;SDS011;42542;48.360;10.958;2022-08-21T08:50:20;10.68;;;5.20;;
56667;SDS011;42542;48.360;10.958;2022-08-21T08:53:28;8.77;;;5.20;;
56667;SDS011;42542;48.360;10.958;2022-08-21T08:56:33;8.90;;;4.90;;
56667;SDS011;42542;48.360;10.958;2022-08-21T08:59:40;9.90;;;5.10;;
56667;SDS011;42542;48.360;10.958;2022-08-21T09:02:46;10.35;;;5.07;;
56667;SDS011;42542;48.360;10.958;2022-08-21T09:09:20;9.75;;;5.35;;
56667;SDS011;42542;48.360;10.958;2022-08-21T09:26:14;11.35;;;5.30;;
56667;SDS011;42542;48.360;10.958;2022-08-21T09:29:21;9.73;;;4.97;;
56667;SDS011;42542;48.360;10.958;2022-08-21T09:32:34;11.93;;;4.90;;
56667;SDS011;42542;48.360;10.958;2022-08-21T09:35:48;8.60;;;4.78;;
56667;SDS011;42542;48.360;10.958;2022-08-21T09:38:55;10.32;;;4.90;;
56667;SDS011;42542;48.360;10.958;2022-08-21T09:41:59;9.50;;;4.40;;
56667;SDS011;42542;48.360;10.958;2022-08-21T09:45:13;8.13;;;4.03;;
56667;SDS011;42542;48.360;10.958;2022-08-21T09:48:20;8.13;;;4.60;;
56667;SDS011;42542;48.360;10.958;2022-08-21T09:51:31;9.93;;;4.57;;
56667;SDS011;42542;48.360;10.958;2022-08-21T09:54:37;8.98;;;4.40;;
56667;SDS011;42542;48.360;10.958;2022-08-21T09:57:43;8.73;;;4.60;;
56667;SDS011;42542;48.360;10.958;2022-08-21T10:00:58;7.97;;;4.10;;
56667;SDS011;42542;48.360;10.958;2022-08-21T10:04:07;8.35;;;4.15;;
56667;SDS011;42542;48.360;10.958;2022-08-21T10:07:10;8.23;;;4.97;;
56667;SDS011;42542;48.360;10.958;2022-08-21T10:10:16;8.98;;;4.43;;
56667;SDS011;42542;48.360;10.958;2022-08-21T10:20:00;11.23;;;4.55;;
56667;SDS011;42542;48.360;10.958;2022-08-21T10:26:57;8.73;;;4.32;;
56667;SDS011;42542;48.360;10.958;2022-08-21T10:30:13;9.27;;;4.95;;
56667;SDS011;42542;48.360;10.958;2022-08-21T10:37:12;9.93;;;4.78;;
56667;SDS011;42542;48.360;10.958;2022-08-21T10:43:57;10.73;;;4.60;;
56667;SDS011;42542;48.360;10.958;2022-08-21T10:47:26;9.52;;;5.15;;
56667;SDS011;42542;48.360;10.958;2022-08-21T10:50:44;9.30;;;4.40;;
56667;SDS011;42542;48.360;10.958;2022-08-21T10:57:33;8.35;;;4.53;;
56667;SDS011;42542;48.360;10.958;2022-08-21T11:00:48;7.13;;;3.05;;
56667;SDS011;42542;48.360;10.958;2022-08-21T11:04:03;7.93;;;3.30;;
56667;SDS011;42542;48.360;10.958;2022-08-21T11:07:18;9.20;;;3.53;;
56667;SDS011;42542;48.360;10.958;2022-08-21T11:10:29;10.60;;;3.80;;
56667;SDS011;42542;48.360;10.958;2022-08-21T11:17:28;8.40;;;3.60;;
56667;SDS011;42542;48.360;10.958;2022-08-21T11:24:13;9.20;;;3.47;;
56667;SDS011;42542;48.360;10.958;2022-08-21T11:27:43;8.95;;;3.80;;
56667;SDS011;42542;48.360;10.958;2022-08-21T11:31:08;6.47;;;2.97;;
56667;SDS011;42542;48.360;10.958;2022-08-21T11:34:51;6.85;;;2.78;;
56667;SDS011;42542;48.360;10.958;2022-08-21T11:41:47;7.87;;;3.20;;
56667;SDS011;42542;48.360;10.958;2022-08-21T11:45:43;8.93;;;3.40;;
56667;SDS011;42542;48.360;10.958;2022-08-21T11:48:52;8.07;;;3.28;;
56667;SDS011;42542;48.360;10.958;2022-08-21T11:55:41;7.60;;;3.53;;
56667;SDS011;42542;48.360;10.958;2022-08-21T11:58:54;8.30;;;3.40;;
56667;SDS011;42542;48.360;10.958;2022-08-21T12:02:01;6.53;;;2.90;;
56667;SDS011;42542;48.360;10.958;2022-08-21T12:05:09;10.05;;;3.40;;
56667;SDS011;42542;48.360;10.958;2022-08-21T12:08:29;7.32;;;3.28;;
56667;SDS011;42542;48.360;10.958;2022-08-21T12:11:46;6.65;;;3.28;;
56667;SDS011;42542;48.360;10.958;2022-08-21T12:15:31;6.20;;;2.90;;
56667;SDS011;42542;48.360;10.958;2022-08-21T12:23:48;6.75;;;3.03;;
56667;SDS011;42542;48.360;10.958;2022-08-21T12:31:47;7.30;;;3.28;;
56667;SDS011;42542;48.360;10.958;2022-08-21T12:35:14;7.03;;;3.20;;
56667;SDS011;42542;48.360;10.958;2022-08-21T12:38:29;7.38;;;3.00;;
56667;SDS011;42542;48.360;10.958;2022-08-21T12:41:47;7.05;;;3.00;;
56667;SDS011;42542;48.360;10.958;2022-08-21T12:45:03;6.28;;;2.92;;
56667;SDS011;42542;48.360;10.958;2022-08-21T12:48:14;6.50;;;2.90;;
56667;SDS011;42542;48.360;10.958;2022-08-21T12:51:26;6.97;;;3.10;;
56667;SDS011;42542;48.360;10.958;2022-08-21T12:54:49;7.25;;;3.20;;
56667;SDS011;42542;48.360;10.958;2022-08-21T12:57:54;6.65;;;2.90;;
56667;SDS011;42542;48.360;10.958;2022-08-21T13:01:00;8.05;;;3.17;;
56667;SDS011;42542;48.360;10.958;2022-08-21T13:04:07;6.70;;;3.10;;
56667;SDS011;42542;48.360;10.958;2022-08-21T13:07:36;6.90;;;3.17;;
56667;SDS011;42542;48.360;10.958;2022-08-21T13:10:40;8.60;;;3.08;;
56667;SDS011;42542;48.360;10.958;2022-08-21T13:13:47;7.88;;;3.10;;
56667;SDS011;42542;48.360;10.958;2022-08-21T13:16:54;7.28;;;3.10;;
56667;SDS011;42542;48.360;10.958;2022-08-21T13:20:22;6.88;;;3.00;;
56667;SDS011;42542;48.360;10.958;2022-08-21T13:23:27;7.63;;;3.07;;
56667;SDS011;42542;48.360;10.958;2022-08-21T13:26:30;6.75;;;3.00;;
56667;SDS011;42542;48.360;10.958;2022-08-21T13:29:33;6.15;;;3.05;;
56667;SDS011;42542;48.360;10.958;2022-08-21T13:32:42;7.07;;;3.03;;
56667;SDS011;42542;48.360;10.958;2022-08-21T13:39:03;6.93;;;3.07;;
56667;SDS011;42542;48.360;10.958;2022-08-21T13:42:08;7.00;;;3.00;;
56667;SDS011;42542;48.360;10.958;2022-08-21T13:45:32;6.50;;;3.10;;
56667;SDS011;42542;48.360;10.958;2022-08-21T13:48:37;7.78;;;2.80;;
56667;SDS011;42542;48.360;10.958;2022-08-21T13:51:39;7.55;;;3.00;;
56667;SDS011;42542;48.360;10.958;2022-08-21T13:54:42;7.13;;;2.83;;
56667;SDS011;42542;48.360;10.958;2022-08-21T13:57:46;6.82;;;2.90;;
56667;SDS011;42542;48.360;10.958;2022-08-21T14:00:51;7.10;;;2.80;;
56667;SDS011;42542;48.360;10.958;2022-08-21T14:03:57;7.10;;;3.05;;
56667;SDS011;42542;48.360;10.958;2022-08-21T14:07:19;8.63;;;2.88;;
56667;SDS011;42542;48.360;10.958;2022-08-21T14:10:34;7.37;;;2.80;;
56667;SDS011;42542;48.360;10.958;2022-08-21T14:13:44;5.70;;;2.83;;
56667;SDS011;42542;48.360;10.958;2022-08-21T14:17:00;6.82;;;3.00;;
56667;SDS011;42542;48.360;10.958;2022-08-21T14:20:33;6.28;;;3.00;;
56667;SDS011;42542;48.360;10.958;2022-08-21T14:23:36;7.10;;;2.90;;
56667;SDS011;42542;48.360;10.958;2022-08-21T14:26:58;6.47;;;2.80;;
56667;SDS011;42542;48.360;10.958;2022-08-21T14:30:17;6.55;;;2.70;;
56667;SDS011;42542;48.360;10.958;2022-08-21T14:33:26;5.95;;;2.67;;
56667;SDS011;42542;48.360;10.958;2022-08-21T14:36:32;6.30;;;2.60;;
56667;SDS011;42542;48.360;10.958;2022-08-21T14:39:33;6.47;;;2.80;;
56667;SDS011;42542;48.360;10.958;2022-08-21T14:42:35;6.80;;;2.80;;
56667;SDS011;42542;48.360;10.958;2022-08-21T14:45:39;7.93;;;2.80;;
56667;SDS011;42542;48.360;10.958;2022-08-21T14:48:42;6.57;;;3.13;;
56667;SDS011;42542;48.360;10.958;2022-08-21T14:51:44;6.30;;;3.00;;
56667;SDS011;42542;48.360;10.958;2022-08-21T14:54:54;6.68;;;2.90;;
56667;SDS011;42542;48.360;10.958;2022-08-21T14:57:56;7.63;;;2.83;;
56667;SDS011;42542;48.360;10.958;2022-08-21T15:01:02;6.80;;;2.90;;
56667;SDS011;42542;48.360;10.958;2022-08-21T15:04:15;7.82;;;3.15;;
56667;SDS011;42542;48.360;10.958;2022-08-21T15:07:18;7.75;;;3.10;;
56667;SDS011;42542;48.360;10.958;2022-08-21T15:10:20;6.68;;;3.00;;
56667;SDS011;42542;48.360;10.958;2022-08-21T15:13:23;7.77;;;2.90;;
56667;SDS011;42542;48.360;10.958;2022-08-21T15:16:26;7.40;;;3.33;;
56667;SDS011;42542;48.360;10.958;2022-08-21T15:19:29;6.90;;;3.17;;
56667;SDS011;42542;48.360;10.958;2022-08-21T15:22:36;6.20;;;2.97;;
56667;SDS011;42542;48.360;10.958;2022-08-21T15:25:40;6.40;;;3.10;;
56667;SDS011;42542;48.360;10.958;2022-08-21T15:28:46;9.23;;;3.20;;
56667;SDS011;42542;48.360;10.958;2022-08-21T15:31:53;8.82;;;3.17;;
56667;SDS011;42542;48.360;10.958;2022-08-21T15:34:58;6.22;;;3.10;;
56667;SDS011;42542;48.360;10.958;2022-08-21T15:38:03;6.13;;;3.05;;
56667;SDS011;42542;48.360;10.958;2022-08-21T15:41:05;9.65;;;3.25;;
56667;SDS011;42542;48.360;10.958;2022-08-21T15:44:16;6.70;;;3.20;;
56667;SDS011;42542;48.360;10.958;2022-08-21T15:47:19;6.95;;;2.97;;
56667;SDS011;42542;48.360;10.958;2022-08-21T15:50:26;9.27;;;3.10;;
56667;SDS011;42542;48.360;10.958;2022-08-21T15:53:30;6.43;;;3.08;;
56667;SDS011;42542;48.360;10.958;2022-08-21T15:56:37;7.38;;;3.00;;
56667;SDS011;42542;48.360;10.958;2022-08-21T16:04:05;7.07;;;3.20;;
56667;SDS011;42542;48.360;10.958;2022-08-21T16:07:11;8.55;;;3.20;;
56667;SDS011;42542;48.360;10.958;2022-08-21T16:10:13;6.32;;;2.95;;
56667;SDS011;42542;48.360;10.958;2022-08-21T16:13:24;7.65;;;3.20;;
56667;SDS011;42542;48.360;10.958;2022-08-21T16:16:28;7.20;;;2.93;;
56667;SDS011;42542;48.360;10.958;2022-08-21T16:19:40;6.28;;;2.80;;
56667;SDS011;42542;48.360;10.958;2022-08-21T16:22:43;7.13;;;2.88;;
56667;SDS011;42542;48.360;10.958;2022-08-21T16:25:48;6.95;;;2.80;;
56667;SDS011;42542;48.360;10.958;2022-08-21T16:28:52;6.38;;;2.75;;
56667;SDS011;42542;48.360;10.958;2022-08-21T16:32:01;6.43;;;2.93;;
56667;SDS011;42542;48.360;10.958;2022-08-21T16:35:04;6.28;;;3.00;;
56667;SDS011;42542;48.360;10.958;2022-08-21T16:38:06;5.85;;;2.65;;
56667;SDS011;42542;48.360;10.958;2022-08-21T16:41:09;6.50;;;2.67;;
56667;SDS011;42542;48.360;10.958;2022-08-21T16:44:14;8.10;;;2.97;;
56667;SDS011;42542;48.360;10.958;2022-08-21T16:47:17;6.90;;;2.87;;
56667;SDS011;42542;48.360;10.958;2022-08-21T16:50:27;6.15;;;2.75;;
56667;SDS011;42542;48.360;10.958;2022-08-21T16:53:37;7.80;;;2.80;;
56667;SDS011;42542;48.360;10.958;2022-08-21T16:56:49;7.82;;;2.80;;
56667;SDS011;42542;48.360;10.958;2022-08-21T16:59:55;7.05;;;2.75;;
56667;SDS011;42542;48.360;10.958;2022-08-21T17:03:00;7.73;;;3.00;;
56667;SDS011;42542;48.360;10.958;2022-08-21T17:06:07;6.57;;;2.90;;
56667;SDS011;42542;48.360;10.958;2022-08-21T17:09:10;6.80;;;3.00;;
56667;SDS011;42542;48.360;10.958;2022-08-21T17:12:13;6.38;;;2.78;;
56667;SDS011;42542;48.360;10.958;2022-08-21T17:15:33;8.15;;;3.80;;
56667;SDS011;42542;48.360;10.958;2022-08-21T17:18:38;8.37;;;3.57;;
56667;SDS011;42542;48.360;10.958;2022-08-21T17:22:05;8.70;;;3.67;;
56667;SDS011;42542;48.360;10.958;2022-08-21T17:25:08;7.57;;;3.35;;
56667;SDS011;42542;48.360;10.958;2022-08-21T17:28:13;7.57;;;2.97;;
56667;SDS011;42542;48.360;10.958;2022-08-21T17:31:17;7.72;;;3.10;;
56667;SDS011;42542;48.360;10.958;2022-08-21T17:34:20;8.93;;;3.00;;
56667;SDS011;42542;48.360;10.958;2022-08-21T17:37:26;6.88;;;3.13;;
56667;SDS011;42542;48.360;10.958;2022-08-21T17:40:29;6.43;;;3.25;;
56667;SDS011;42542;48.360;10.958;2022-08-21T17:43:37;6.90;;;3.20;;
56667;SDS011;42542;48.360;10.958;2022-08-21T17:46:42;6.80;;;3.20;;
56667;SDS011;42542;48.360;10.958;2022-08-21T17:49:44;6.87;;;3.13;;
56667;SDS011;42542;48.360;10.958;2022-08-21T17:52:51;7.45;;;3.40;;
56667;SDS011;42542;48.360;10.958;2022-08-21T17:55:53;10.15;;;3.30;;
56667;SDS011;42542;48.360;10.958;2022-08-21T17:58:57;7.57;;;3.28;;
56667;SDS011;42542;48.360;10.958;2022-08-21T18:02:00;7.55;;;3.28;;
56667;SDS011;42542;48.360;10.958;2022-08-21T18:05:10;8.33;;;3.10;;
56667;SDS011;42542;48.360;10.958;2022-08-21T18:08:15;8.45;;;3.25;;
56667;SDS011;42542;48.360;10.958;2022-08-21T18:11:20;7.43;;;3.38;;
56667;SDS011;42542;48.360;10.958;2022-08-21T18:14:29;8.25;;;3.35;;
56667;SDS011;42542;48.360;10.958;2022-08-21T18:17:38;6.95;;;3.30;;
56667;SDS011;42542;48.360;10.958;2022-08-21T18:20:47;8.13;;;3.50;;
56667;SDS011;42542;48.360;10.958;2022-08-21T18:23:49;8.40;;;3.75;;
56667;SDS011;42542;48.360;10.958;2022-08-21T18:26:52;7.55;;;3.80;;
56667;SDS011;42542;48.360;10.958;2022-08-21T18:29:59;11.27;;;4.60;;
56667;SDS011;42542;48.360;10.958;2022-08-21T18:33:04;9.95;;;4.55;;
56667;SDS011;42542;48.360;10.958;2022-08-21T18:36:10;10.53;;;4.90;;
56667;SDS011;42542;48.360;10.958;2022-08-21T18:39:13;10.02;;;4.88;;
56667;SDS011;42542;48.360;10.958;2022-08-21T18:42:36;8.98;;;4.85;;
56667;SDS011;42542;48.360;10.958;2022-08-21T18:45:43;12.75;;;5.00;;
56667;SDS011;42542;48.360;10.958;2022-08-21T18:48:45;9.35;;;5.20;;
56667;SDS011;42542;48.360;10.958;2022-08-21T18:51:47;10.40;;;5.10;;
56667;SDS011;42542;48.360;10.958;2022-08-21T18:55:03;9.45;;;4.70;;
56667;SDS011;42542;48.360;10.958;2022-08-21T18:58:14;8.23;;;4.57;;
56667;SDS011;42542;48.360;10.958;2022-08-21T19:01:18;10.07;;;4.60;;
56667;SDS011;42542;48.360;10.958;2022-08-21T19:04:21;10.05;;;4.63;;
56667;SDS011;42542;48.360;10.958;2022-08-21T19:07:42;9.20;;;4.40;;
56667;SDS011;42542;48.360;10.958;2022-08-21T19:10:45;10.32;;;4.38;;
56667;SDS011;42542;48.360;10.958;2022-08-21T19:13:51;8.63;;;4.25;;
56667;SDS011;42542;48.360;10.958;2022-08-21T19:16:54;8.93;;;4.53;;
56667;SDS011;42542;48.360;10.958;2022-08-21T19:20:00;9.10;;;4.50;;
56667;SDS011;42542;48.360;10.958;2022-08-21T19:23:07;9.23;;;5.00;;
56667;SDS011;42542;48.360;10.958;2022-08-21T19:26:11;9.52;;;5.00;;
56667;SDS011;42542;48.360;10.958;2022-08-21T19:29:14;10.27;;;4.75;;
56667;SDS011;42542;48.360;10.958;2022-08-21T19:32:19;12.50;;;4.97;;
56667;SDS011;42542;48.360;10.958;2022-08-21T19:35:21;11.32;;;5.10;;
56667;SDS011;42542;48.360;10.958;2022-08-21T19:38:23;10.20;;;5.00;;
56667;SDS011;42542;48.360;10.958;2022-08-21T19:41:27;10.15;;;5.03;;
56667;SDS011;42542;48.360;10.958;2022-08-21T19:44:32;11.27;;;5.38;;
56667;SDS011;42542;48.360;10.958;2022-08-21T19:47:41;10.02;;;4.97;;